Lower Lake, CA (95457)

6:54 AM PST on December 19, 2014 (GMT -0800)
RAWS KONOCTI CA US | Change Station
CLOSE
Current Station
Personal Weather Station
Location: Clearlake, CA
Elevation: 2163 ft
Nearby Weather Stations

Elev 2163 ft 38.91 °N, 122.71 °W | Updated 57 minutes ago

Rain
Rain
48 °F
Feels Like 45 °F
N
6
Wind Variable Wind from North
Gusts 13.0 mph

Today
High -- | Low -- °F
--% Chance of Precip.
Yesterday
High -- | Low -- °F
Precip. -- in
7:24 AM 4:50 PM
Waning Crescent, 7% visible
Pressure 30.03 in
Visibility 3.0 miles
Clouds Overcast 600 ft
Windchill 45 °F
Dew Point 47 °F
Humidity 97%
Rainfall 0.13 in
Snow Depth Not available.
UV 0 out of 12
Pollen 1.60 out of 12
Air Quality Not available.
Flu Activity Not available.
METAR KSTS 191353Z AUTO 15012KT 3SM -RA BR OVC006 12/12 A3004 RMK AO2 SLP167 P0006 T01220122

More Conditions Fewer Conditions

Pressure 30.03 in
Visibility 3.0 miles
Clouds Overcast 600 ft
Windchill 45 °F
Dew Point 47 °F
Humidity 97%
Rainfall 0.13 in
Snow Depth Not available.
UV 0 out of 12
Pollen 1.60 out of 12
Air Quality Not available.
Flu Activity Not available.
METAR KSTS 191353Z AUTO 15012KT 3SM -RA BR OVC006 12/12 A3004 RMK AO2 SLP167 P0006 T01220122

More Conditions Fewer Conditions

10-Day Weather Forecast

Almanac

Astronomy

Dec. 19, 2014 Rise Set
Actual Time
Civil Twilight
Nautical Twilight
Astronomical Twilight
Moon
Length of Visible Light
Length of Day
Tomorrow will be .
, % of the Moon is Illuminated

Today's Extremes

State Highs State Lows

Community

WunderPhotos

Upload Photos

1,778,988 photos uploaded!

WunderBlogs® & News

Nearby

Air Quality

  Air Quality AQ Index Pollutant
Not available.

Snow Depth

Station Depth Elevation

Earthquake Activity

City Distance Mag. Time & Date
Minimum magnitude displayed is 2.5.

Coastal Water Temperatures

Place Temperature

Nearby Weather Stations